sensor_id;sensor_type;location;lat;lon;timestamp;temperature;humidity
60860;DHT22;46694;54.382;9.708;2022-11-15T00:00:03;7.00;99.90
60860;DHT22;46694;54.382;9.708;2022-11-15T00:02:43;7.00;99.90
60860;DHT22;46694;54.382;9.708;2022-11-15T00:05:23;7.00;99.90
60860;DHT22;46694;54.382;9.708;2022-11-15T00:08:03;7.00;99.90
60860;DHT22;46694;54.382;9.708;2022-11-15T00:10:42;7.00;99.90
60860;DHT22;46694;54.382;9.708;2022-11-15T00:13:27;6.90;99.90
60860;DHT22;46694;54.382;9.708;2022-11-15T00:16:09;7.00;99.90
60860;DHT22;46694;54.382;9.708;2022-11-15T00:18:49;6.90;99.90
60860;DHT22;46694;54.382;9.708;2022-11-15T00:21:29;6.90;99.90
60860;DHT22;46694;54.382;9.708;2022-11-15T00:24:09;6.90;99.90
60860;DHT22;46694;54.382;9.708;2022-11-15T00:26:48;6.90;99.90
60860;DHT22;46694;54.382;9.708;2022-11-15T00:29:28;6.90;99.90
60860;DHT22;46694;54.382;9.708;2022-11-15T00:32:09;6.90;99.90
60860;DHT22;46694;54.382;9.708;2022-11-15T00:34:49;6.90;99.90
60860;DHT22;46694;54.382;9.708;2022-11-15T00:37:28;6.90;99.90
60860;DHT22;46694;54.382;9.708;2022-11-15T00:40:09;6.90;99.90
60860;DHT22;46694;54.382;9.708;2022-11-15T00:42:49;6.90;99.90
60860;DHT22;46694;54.382;9.708;2022-11-15T00:45:28;6.80;99.90
60860;DHT22;46694;54.382;9.708;2022-11-15T00:48:09;6.80;99.90
60860;DHT22;46694;54.382;9.708;2022-11-15T00:50:49;6.80;99.90
60860;DHT22;46694;54.382;9.708;2022-11-15T00:53:29;6.80;99.90
60860;DHT22;46694;54.382;9.708;2022-11-15T00:56:08;6.80;99.90
60860;DHT22;46694;54.382;9.708;2022-11-15T00:58:48;6.80;99.90
60860;DHT22;46694;54.382;9.708;2022-11-15T01:01:28;6.80;99.90
60860;DHT22;46694;54.382;9.708;2022-11-15T01:04:07;6.80;99.90
60860;DHT22;46694;54.382;9.708;2022-11-15T01:06:47;6.80;99.90
60860;DHT22;46694;54.382;9.708;2022-11-15T01:09:26;6.80;99.90
60860;DHT22;46694;54.382;9.708;2022-11-15T01:12:06;6.80;99.90
60860;DHT22;46694;54.382;9.708;2022-11-15T01:14:45;6.70;99.90
60860;DHT22;46694;54.382;9.708;2022-11-15T01:17:25;6.70;99.90
60860;DHT22;46694;54.382;9.708;2022-11-15T01:20:05;6.70;99.90
60860;DHT22;46694;54.382;9.708;2022-11-15T01:22:45;6.70;99.90
60860;DHT22;46694;54.382;9.708;2022-11-15T01:25:25;6.80;99.90
60860;DHT22;46694;54.382;9.708;2022-11-15T01:28:05;6.80;99.90
60860;DHT22;46694;54.382;9.708;2022-11-15T01:30:44;6.80;99.90
60860;DHT22;46694;54.382;9.708;2022-11-15T01:33:24;6.80;99.90
60860;DHT22;46694;54.382;9.708;2022-11-15T01:36:05;6.80;99.90
60860;DHT22;46694;54.382;9.708;2022-11-15T01:38:54;6.80;99.90
60860;DHT22;46694;54.382;9.708;2022-11-15T01:41:37;6.80;99.90
60860;DHT22;46694;54.382;9.708;2022-11-15T01:44:38;6.80;99.90
60860;DHT22;46694;54.382;9.708;2022-11-15T01:47:28;6.80;99.90
60860;DHT22;46694;54.382;9.708;2022-11-15T01:50:12;6.80;99.90
60860;DHT22;46694;54.382;9.708;2022-11-15T01:52:55;6.80;99.90
60860;DHT22;46694;54.382;9.708;2022-11-15T01:55:35;6.80;99.90
60860;DHT22;46694;54.382;9.708;2022-11-15T01:58:14;6.80;99.90
60860;DHT22;46694;54.382;9.708;2022-11-15T02:00:54;6.80;99.90
60860;DHT22;46694;54.382;9.708;2022-11-15T02:03:51;6.80;99.90
60860;DHT22;46694;54.382;9.708;2022-11-15T02:06:31;6.80;99.90
60860;DHT22;46694;54.382;9.708;2022-11-15T02:09:11;6.80;99.90
60860;DHT22;46694;54.382;9.708;2022-11-15T02:11:51;6.80;99.90
60860;DHT22;46694;54.382;9.708;2022-11-15T02:14:33;6.80;99.90
60860;DHT22;46694;54.382;9.708;2022-11-15T02:20:55;6.90;99.90
60860;DHT22;46694;54.382;9.708;2022-11-15T02:30:00;6.90;99.90
60860;DHT22;46694;54.382;9.708;2022-11-15T02:39:38;6.70;99.90
60860;DHT22;46694;54.382;9.708;2022-11-15T02:42:31;6.70;99.90
60860;DHT22;46694;54.382;9.708;2022-11-15T02:45:36;6.70;99.90
60860;DHT22;46694;54.382;9.708;2022-11-15T02:48:19;6.60;99.90
60860;DHT22;46694;54.382;9.708;2022-11-15T02:51:00;6.60;99.90
60860;DHT22;46694;54.382;9.708;2022-11-15T02:53:41;6.60;99.90
60860;DHT22;46694;54.382;9.708;2022-11-15T02:56:20;6.60;99.90
60860;DHT22;46694;54.382;9.708;2022-11-15T03:04:55;6.70;99.90
60860;DHT22;46694;54.382;9.708;2022-11-15T03:11:15;6.60;99.90
60860;DHT22;46694;54.382;9.708;2022-11-15T03:16:49;6.50;99.90
60860;DHT22;46694;54.382;9.708;2022-11-15T03:22:22;6.50;99.90
60860;DHT22;46694;54.382;9.708;2022-11-15T03:25:07;6.50;99.90
60860;DHT22;46694;54.382;9.708;2022-11-15T03:27:51;6.50;99.90
60860;DHT22;46694;54.382;9.708;2022-11-15T03:30:34;6.40;99.90
60860;DHT22;46694;54.382;9.708;2022-11-15T03:33:16;6.40;99.90
60860;DHT22;46694;54.382;9.708;2022-11-15T03:35:56;6.40;99.90
60860;DHT22;46694;54.382;9.708;2022-11-15T03:38:36;6.40;99.90
60860;DHT22;46694;54.382;9.708;2022-11-15T03:41:35;6.40;99.90
60860;DHT22;46694;54.382;9.708;2022-11-15T03:44:26;6.30;99.90
60860;DHT22;46694;54.382;9.708;2022-11-15T03:50:08;6.30;99.90
60860;DHT22;46694;54.382;9.708;2022-11-15T03:52:50;6.30;99.90
60860;DHT22;46694;54.382;9.708;2022-11-15T03:55:32;6.30;99.90
60860;DHT22;46694;54.382;9.708;2022-11-15T03:58:11;6.30;99.90
60860;DHT22;46694;54.382;9.708;2022-11-15T04:00:51;6.30;99.90
60860;DHT22;46694;54.382;9.708;2022-11-15T04:03:31;6.20;99.90
60860;DHT22;46694;54.382;9.708;2022-11-15T04:06:10;6.20;99.90
60860;DHT22;46694;54.382;9.708;2022-11-15T04:08:50;6.10;99.90
60860;DHT22;46694;54.382;9.708;2022-11-15T04:11:29;6.10;99.90
60860;DHT22;46694;54.382;9.708;2022-11-15T04:14:09;6.10;99.90
60860;DHT22;46694;54.382;9.708;2022-11-15T04:16:48;6.10;99.90
60860;DHT22;46694;54.382;9.708;2022-11-15T04:19:28;6.10;99.90
60860;DHT22;46694;54.382;9.708;2022-11-15T04:22:26;6.10;99.90
60860;DHT22;46694;54.382;9.708;2022-11-15T04:25:24;6.00;99.90
60860;DHT22;46694;54.382;9.708;2022-11-15T04:28:04;6.00;99.90
60860;DHT22;46694;54.382;9.708;2022-11-15T04:30:43;6.00;99.90
60860;DHT22;46694;54.382;9.708;2022-11-15T04:33:23;5.90;99.90
60860;DHT22;46694;54.382;9.708;2022-11-15T04:36:03;5.90;99.90
60860;DHT22;46694;54.382;9.708;2022-11-15T04:39:01;5.90;99.90
60860;DHT22;46694;54.382;9.708;2022-11-15T04:41:40;5.90;99.90
60860;DHT22;46694;54.382;9.708;2022-11-15T04:44:20;5.90;99.90
60860;DHT22;46694;54.382;9.708;2022-11-15T04:47:00;5.90;99.90
60860;DHT22;46694;54.382;9.708;2022-11-15T04:49:43;5.90;99.90
60860;DHT22;46694;54.382;9.708;2022-11-15T04:52:23;5.90;99.90
60860;DHT22;46694;54.382;9.708;2022-11-15T04:55:03;5.90;99.90
60860;DHT22;46694;54.382;9.708;2022-11-15T04:57:42;5.80;99.90
60860;DHT22;46694;54.382;9.708;2022-11-15T05:00:22;5.80;99.90
60860;DHT22;46694;54.382;9.708;2022-11-15T05:03:01;5.70;99.90
60860;DHT22;46694;54.382;9.708;2022-11-15T05:06:00;5.70;99.90
60860;DHT22;46694;54.382;9.708;2022-11-15T05:08:40;5.70;99.90
60860;DHT22;46694;54.382;9.708;2022-11-15T05:11:19;5.60;99.90
60860;DHT22;46694;54.382;9.708;2022-11-15T05:13:59;5.60;99.90
60860;DHT22;46694;54.382;9.708;2022-11-15T05:16:39;5.60;99.90
60860;DHT22;46694;54.382;9.708;2022-11-15T05:19:19;5.60;99.90
60860;DHT22;46694;54.382;9.708;2022-11-15T05:21:58;5.60;99.90
60860;DHT22;46694;54.382;9.708;2022-11-15T05:24:38;5.50;99.90
60860;DHT22;46694;54.382;9.708;2022-11-15T05:27:17;5.50;99.90
60860;DHT22;46694;54.382;9.708;2022-11-15T05:29:57;5.50;99.90
60860;DHT22;46694;54.382;9.708;2022-11-15T05:32:36;5.50;99.90
60860;DHT22;46694;54.382;9.708;2022-11-15T05:35:41;5.50;99.90
60860;DHT22;46694;54.382;9.708;2022-11-15T05:38:23;5.50;99.90
60860;DHT22;46694;54.382;9.708;2022-11-15T05:41:03;5.50;99.90
60860;DHT22;46694;54.382;9.708;2022-11-15T05:43:43;5.50;99.90
60860;DHT22;46694;54.382;9.708;2022-11-15T05:46:24;5.50;99.90
60860;DHT22;46694;54.382;9.708;2022-11-15T05:49:06;5.60;99.90
60860;DHT22;46694;54.382;9.708;2022-11-15T05:51:47;5.70;99.90
60860;DHT22;46694;54.382;9.708;2022-11-15T05:54:27;5.70;99.90
60860;DHT22;46694;54.382;9.708;2022-11-15T05:57:07;5.70;99.90
60860;DHT22;46694;54.382;9.708;2022-11-15T05:59:46;5.70;99.90
60860;DHT22;46694;54.382;9.708;2022-11-15T06:02:26;5.80;99.90
60860;DHT22;46694;54.382;9.708;2022-11-15T06:05:05;5.80;99.90
60860;DHT22;46694;54.382;9.708;2022-11-15T06:07:45;5.80;99.90
60860;DHT22;46694;54.382;9.708;2022-11-15T06:10:25;5.80;99.90
60860;DHT22;46694;54.382;9.708;2022-11-15T06:13:04;5.90;99.90
60860;DHT22;46694;54.382;9.708;2022-11-15T06:15:44;5.90;99.90
60860;DHT22;46694;54.382;9.708;2022-11-15T06:18:24;6.00;99.90
60860;DHT22;46694;54.382;9.708;2022-11-15T06:21:04;6.10;99.90
60860;DHT22;46694;54.382;9.708;2022-11-15T06:23:44;6.10;99.90
60860;DHT22;46694;54.382;9.708;2022-11-15T06:26:24;6.20;99.90
60860;DHT22;46694;54.382;9.708;2022-11-15T06:29:04;6.20;99.90
60860;DHT22;46694;54.382;9.708;2022-11-15T06:31:44;6.30;99.90
60860;DHT22;46694;54.382;9.708;2022-11-15T06:34:23;6.30;99.90
60860;DHT22;46694;54.382;9.708;2022-11-15T06:37:03;6.30;99.90
60860;DHT22;46694;54.382;9.708;2022-11-15T06:39:42;6.40;99.90
60860;DHT22;46694;54.382;9.708;2022-11-15T06:42:22;6.40;99.90
60860;DHT22;46694;54.382;9.708;2022-11-15T06:45:02;6.40;99.90
60860;DHT22;46694;54.382;9.708;2022-11-15T06:47:48;6.50;99.90
60860;DHT22;46694;54.382;9.708;2022-11-15T06:50:27;6.50;99.90
60860;DHT22;46694;54.382;9.708;2022-11-15T06:53:07;6.50;99.90
60860;DHT22;46694;54.382;9.708;2022-11-15T06:55:46;6.50;99.90
60860;DHT22;46694;54.382;9.708;2022-11-15T06:58:26;6.60;99.90
60860;DHT22;46694;54.382;9.708;2022-11-15T07:01:09;6.60;99.90
60860;DHT22;46694;54.382;9.708;2022-11-15T07:03:50;6.60;99.90
60860;DHT22;46694;54.382;9.708;2022-11-15T07:06:48;6.70;99.90
60860;DHT22;46694;54.382;9.708;2022-11-15T07:09:27;6.70;99.90
60860;DHT22;46694;54.382;9.708;2022-11-15T07:12:07;6.80;99.90
60860;DHT22;46694;54.382;9.708;2022-11-15T07:14:47;6.80;99.90
60860;DHT22;46694;54.382;9.708;2022-11-15T07:17:26;6.80;99.90
60860;DHT22;46694;54.382;9.708;2022-11-15T07:20:06;6.80;99.90
60860;DHT22;46694;54.382;9.708;2022-11-15T07:22:46;6.80;99.90
60860;DHT22;46694;54.382;9.708;2022-11-15T07:25:25;6.90;99.90
60860;DHT22;46694;54.382;9.708;2022-11-15T07:28:05;6.90;99.90
60860;DHT22;46694;54.382;9.708;2022-11-15T07:30:45;6.90;99.90
60860;DHT22;46694;54.382;9.708;2022-11-15T07:33:24;7.00;99.90
60860;DHT22;46694;54.382;9.708;2022-11-15T07:36:06;7.00;99.90
60860;DHT22;46694;54.382;9.708;2022-11-15T07:38:47;7.00;99.90
60860;DHT22;46694;54.382;9.708;2022-11-15T07:41:26;7.10;99.90
60860;DHT22;46694;54.382;9.708;2022-11-15T07:44:06;7.10;99.90
60860;DHT22;46694;54.382;9.708;2022-11-15T07:46:46;7.10;99.90
60860;DHT22;46694;54.382;9.708;2022-11-15T07:49:25;7.20;99.90
60860;DHT22;46694;54.382;9.708;2022-11-15T07:52:05;7.10;99.90
60860;DHT22;46694;54.382;9.708;2022-11-15T07:54:44;7.20;99.90
60860;DHT22;46694;54.382;9.708;2022-11-15T07:57:24;7.20;99.90
60860;DHT22;46694;54.382;9.708;2022-11-15T08:00:05;7.20;99.90
60860;DHT22;46694;54.382;9.708;2022-11-15T08:02:45;7.20;99.90
60860;DHT22;46694;54.382;9.708;2022-11-15T08:05:24;7.20;99.90
60860;DHT22;46694;54.382;9.708;2022-11-15T08:08:05;7.20;99.90
60860;DHT22;46694;54.382;9.708;2022-11-15T08:10:45;7.20;99.90
60860;DHT22;46694;54.382;9.708;2022-11-15T08:13:24;7.30;99.90
60860;DHT22;46694;54.382;9.708;2022-11-15T08:16:04;7.30;99.90
60860;DHT22;46694;54.382;9.708;2022-11-15T08:18:44;7.30;99.90
60860;DHT22;46694;54.382;9.708;2022-11-15T08:21:24;7.30;99.90
60860;DHT22;46694;54.382;9.708;2022-11-15T08:24:04;7.30;99.90
60860;DHT22;46694;54.382;9.708;2022-11-15T08:26:44;7.30;99.90
60860;DHT22;46694;54.382;9.708;2022-11-15T08:29:24;7.30;99.90
60860;DHT22;46694;54.382;9.708;2022-11-15T08:32:03;7.30;99.90
60860;DHT22;46694;54.382;9.708;2022-11-15T08:34:43;7.30;99.90
60860;DHT22;46694;54.382;9.708;2022-11-15T08:37:23;7.30;99.90
60860;DHT22;46694;54.382;9.708;2022-11-15T08:40:04;7.40;99.90
60860;DHT22;46694;54.382;9.708;2022-11-15T08:42:46;7.40;99.90
60860;DHT22;46694;54.382;9.708;2022-11-15T08:45:26;7.40;99.90
60860;DHT22;46694;54.382;9.708;2022-11-15T08:48:06;7.40;99.90
60860;DHT22;46694;54.382;9.708;2022-11-15T08:50:46;7.50;99.90
60860;DHT22;46694;54.382;9.708;2022-11-15T08:53:25;7.50;99.90
60860;DHT22;46694;54.382;9.708;2022-11-15T08:56:08;7.50;99.90
60860;DHT22;46694;54.382;9.708;2022-11-15T08:58:48;7.60;99.90
60860;DHT22;46694;54.382;9.708;2022-11-15T09:01:28;7.60;99.90
60860;DHT22;46694;54.382;9.708;2022-11-15T09:04:07;7.70;99.90
60860;DHT22;46694;54.382;9.708;2022-11-15T09:06:47;7.70;99.90
60860;DHT22;46694;54.382;9.708;2022-11-15T09:09:26;7.70;99.90
60860;DHT22;46694;54.382;9.708;2022-11-15T09:12:07;7.70;99.90
60860;DHT22;46694;54.382;9.708;2022-11-15T09:14:46;7.80;99.90
60860;DHT22;46694;54.382;9.708;2022-11-15T09:17:26;7.90;99.90
60860;DHT22;46694;54.382;9.708;2022-11-15T09:20:06;7.90;99.90
60860;DHT22;46694;54.382;9.708;2022-11-15T09:22:46;7.90;99.90
60860;DHT22;46694;54.382;9.708;2022-11-15T09:25:27;7.90;99.90
60860;DHT22;46694;54.382;9.708;2022-11-15T09:28:08;7.90;99.90
60860;DHT22;46694;54.382;9.708;2022-11-15T09:30:47;8.00;99.90
60860;DHT22;46694;54.382;9.708;2022-11-15T09:33:27;8.00;99.90
60860;DHT22;46694;54.382;9.708;2022-11-15T09:36:09;8.10;99.90
60860;DHT22;46694;54.382;9.708;2022-11-15T09:38:49;8.00;99.90
60860;DHT22;46694;54.382;9.708;2022-11-15T09:51:36;8.20;99.90
60860;DHT22;46694;54.382;9.708;2022-11-15T09:54:35;8.20;99.90
60860;DHT22;46694;54.382;9.708;2022-11-15T09:57:17;8.30;99.90
60860;DHT22;46694;54.382;9.708;2022-11-15T10:00:36;8.30;99.90
60860;DHT22;46694;54.382;9.708;2022-11-15T10:03:34;8.40;99.90
60860;DHT22;46694;54.382;9.708;2022-11-15T10:06:23;8.40;99.90
60860;DHT22;46694;54.382;9.708;2022-11-15T10:09:12;8.40;99.90
60860;DHT22;46694;54.382;9.708;2022-11-15T10:11:54;8.50;99.90
60860;DHT22;46694;54.382;9.708;2022-11-15T10:14:35;8.50;99.90
60860;DHT22;46694;54.382;9.708;2022-11-15T10:17:21;8.50;99.90
60860;DHT22;46694;54.382;9.708;2022-11-15T10:23:01;8.60;99.90
60860;DHT22;46694;54.382;9.708;2022-11-15T10:25:44;8.60;99.90
60860;DHT22;46694;54.382;9.708;2022-11-15T10:28:30;8.70;99.90
60860;DHT22;46694;54.382;9.708;2022-11-15T10:31:25;8.70;99.90
60860;DHT22;46694;54.382;9.708;2022-11-15T10:34:13;8.70;99.90
60860;DHT22;46694;54.382;9.708;2022-11-15T10:36:56;8.70;99.90
60860;DHT22;46694;54.382;9.708;2022-11-15T10:39:37;8.80;99.90
60860;DHT22;46694;54.382;9.708;2022-11-15T10:42:27;8.70;99.90
60860;DHT22;46694;54.382;9.708;2022-11-15T10:45:29;8.80;99.90
60860;DHT22;46694;54.382;9.708;2022-11-15T10:50:54;8.90;99.90
60860;DHT22;46694;54.382;9.708;2022-11-15T10:53:41;8.90;99.90
60860;DHT22;46694;54.382;9.708;2022-11-15T10:56:25;9.00;99.90
60860;DHT22;46694;54.382;9.708;2022-11-15T10:59:16;9.10;99.90
60860;DHT22;46694;54.382;9.708;2022-11-15T11:02:00;9.10;99.90
60860;DHT22;46694;54.382;9.708;2022-11-15T11:04:50;9.20;99.90
60860;DHT22;46694;54.382;9.708;2022-11-15T11:07:34;9.30;99.90
60860;DHT22;46694;54.382;9.708;2022-11-15T11:10:21;9.30;99.90
60860;DHT22;46694;54.382;9.708;2022-11-15T11:13:41;9.30;99.90
60860;DHT22;46694;54.382;9.708;2022-11-15T11:16:42;9.40;99.90
60860;DHT22;46694;54.382;9.708;2022-11-15T11:29:24;9.50;99.90
60860;DHT22;46694;54.382;9.708;2022-11-15T11:36:25;9.70;99.90
60860;DHT22;46694;54.382;9.708;2022-11-15T11:39:22;9.70;99.90
60860;DHT22;46694;54.382;9.708;2022-11-15T11:42:17;9.70;99.90
60860;DHT22;46694;54.382;9.708;2022-11-15T11:51:42;9.50;99.90
60860;DHT22;46694;54.382;9.708;2022-11-15T11:55:21;9.50;99.90
60860;DHT22;46694;54.382;9.708;2022-11-15T11:57:56;9.50;99.90
60860;DHT22;46694;54.382;9.708;2022-11-15T12:01:00;9.60;99.90
60860;DHT22;46694;54.382;9.708;2022-11-15T12:03:55;9.60;99.90
60860;DHT22;46694;54.382;9.708;2022-11-15T12:06:44;9.60;99.90
60860;DHT22;46694;54.382;9.708;2022-11-15T12:13:08;9.60;99.90
60860;DHT22;46694;54.382;9.708;2022-11-15T12:15:59;9.60;99.90
60860;DHT22;46694;54.382;9.708;2022-11-15T12:18:48;9.60;99.90
60860;DHT22;46694;54.382;9.708;2022-11-15T12:24:26;9.60;99.90
60860;DHT22;46694;54.382;9.708;2022-11-15T12:27:17;9.60;99.90
60860;DHT22;46694;54.382;9.708;2022-11-15T12:30:08;9.60;99.90
60860;DHT22;46694;54.382;9.708;2022-11-15T12:33:00;9.60;99.90
60860;DHT22;46694;54.382;9.708;2022-11-15T12:35:42;9.70;99.90
60860;DHT22;46694;54.382;9.708;2022-11-15T12:41:41;9.80;99.90
60860;DHT22;46694;54.382;9.708;2022-11-15T12:47:25;9.80;99.90
60860;DHT22;46694;54.382;9.708;2022-11-15T12:50:12;9.80;99.90
60860;DHT22;46694;54.382;9.708;2022-11-15T12:53:26;9.80;99.90
60860;DHT22;46694;54.382;9.708;2022-11-15T12:58:57;9.90;99.90
60860;DHT22;46694;54.382;9.708;2022-11-15T13:01:58;9.90;99.90
60860;DHT22;46694;54.382;9.708;2022-11-15T13:04:38;10.00;99.90
60860;DHT22;46694;54.382;9.708;2022-11-15T13:13:08;10.00;99.90
60860;DHT22;46694;54.382;9.708;2022-11-15T13:16:01;10.00;99.90
60860;DHT22;46694;54.382;9.708;2022-11-15T13:18:41;10.00;99.90
60860;DHT22;46694;54.382;9.708;2022-11-15T13:21:23;10.00;99.90
60860;DHT22;46694;54.382;9.708;2022-11-15T13:24:22;10.10;99.90
60860;DHT22;46694;54.382;9.708;2022-11-15T13:27:01;10.20;99.90
60860;DHT22;46694;54.382;9.708;2022-11-15T13:29:43;10.20;99.90
60860;DHT22;46694;54.382;9.708;2022-11-15T13:32:22;10.30;99.90
60860;DHT22;46694;54.382;9.708;2022-11-15T13:35:07;10.30;99.90
60860;DHT22;46694;54.382;9.708;2022-11-15T13:37:46;10.30;99.90
60860;DHT22;46694;54.382;9.708;2022-11-15T13:40:29;10.30;99.90
60860;DHT22;46694;54.382;9.708;2022-11-15T13:43:36;10.30;99.90
60860;DHT22;46694;54.382;9.708;2022-11-15T13:46:24;10.30;99.90
60860;DHT22;46694;54.382;9.708;2022-11-15T13:49:09;10.30;99.90
60860;DHT22;46694;54.382;9.708;2022-11-15T13:51:53;10.30;99.90
60860;DHT22;46694;54.382;9.708;2022-11-15T13:57:34;10.40;99.90
60860;DHT22;46694;54.382;9.708;2022-11-15T14:00:43;10.40;99.90
60860;DHT22;46694;54.382;9.708;2022-11-15T14:03:26;10.40;99.90
60860;DHT22;46694;54.382;9.708;2022-11-15T14:06:17;10.30;99.90
60860;DHT22;46694;54.382;9.708;2022-11-15T14:11:50;10.40;99.90
60860;DHT22;46694;54.382;9.708;2022-11-15T14:14:33;10.40;99.90
60860;DHT22;46694;54.382;9.708;2022-11-15T14:23:24;10.40;99.90
60860;DHT22;46694;54.382;9.708;2022-11-15T14:26:25;10.30;99.90
60860;DHT22;46694;54.382;9.708;2022-11-15T14:29:29;10.40;99.90
60860;DHT22;46694;54.382;9.708;2022-11-15T14:32:46;10.30;99.90
60860;DHT22;46694;54.382;9.708;2022-11-15T14:35:23;10.40;99.90
60860;DHT22;46694;54.382;9.708;2022-11-15T14:38:03;10.40;99.90
60860;DHT22;46694;54.382;9.708;2022-11-15T14:40:43;10.40;99.90
60860;DHT22;46694;54.382;9.708;2022-11-15T14:43:23;10.40;99.90
60860;DHT22;46694;54.382;9.708;2022-11-15T14:46:02;10.30;99.90
60860;DHT22;46694;54.382;9.708;2022-11-15T14:48:42;10.40;99.90
60860;DHT22;46694;54.382;9.708;2022-11-15T14:51:22;10.30;99.90
60860;DHT22;46694;54.382;9.708;2022-11-15T14:54:02;10.30;99.90
60860;DHT22;46694;54.382;9.708;2022-11-15T14:56:41;10.30;99.90
60860;DHT22;46694;54.382;9.708;2022-11-15T14:59:21;10.30;99.90
60860;DHT22;46694;54.382;9.708;2022-11-15T15:02:24;10.30;99.90
60860;DHT22;46694;54.382;9.708;2022-11-15T15:05:21;10.30;99.90
60860;DHT22;46694;54.382;9.708;2022-11-15T15:08:02;10.30;99.90
60860;DHT22;46694;54.382;9.708;2022-11-15T15:10:44;10.30;99.90
60860;DHT22;46694;54.382;9.708;2022-11-15T15:13:24;10.30;99.90
60860;DHT22;46694;54.382;9.708;2022-11-15T15:16:04;10.20;99.90
60860;DHT22;46694;54.382;9.708;2022-11-15T15:18:43;10.20;99.90
60860;DHT22;46694;54.382;9.708;2022-11-15T15:21:27;10.20;99.90
60860;DHT22;46694;54.382;9.708;2022-11-15T15:24:13;10.30;99.90
60860;DHT22;46694;54.382;9.708;2022-11-15T15:26:54;10.20;99.90
60860;DHT22;46694;54.382;9.708;2022-11-15T15:29:33;10.20;99.90
60860;DHT22;46694;54.382;9.708;2022-11-15T15:32:13;10.20;99.90
60860;DHT22;46694;54.382;9.708;2022-11-15T15:34:53;10.20;99.90
60860;DHT22;46694;54.382;9.708;2022-11-15T15:37:33;10.20;99.90
60860;DHT22;46694;54.382;9.708;2022-11-15T15:40:17;10.20;99.90
60860;DHT22;46694;54.382;9.708;2022-11-15T15:42:59;10.20;99.90
60860;DHT22;46694;54.382;9.708;2022-11-15T15:45:40;10.20;99.90
60860;DHT22;46694;54.382;9.708;2022-11-15T15:48:20;10.20;99.90
60860;DHT22;46694;54.382;9.708;2022-11-15T15:50:59;10.20;99.90
60860;DHT22;46694;54.382;9.708;2022-11-15T15:53:39;10.30;99.90
60860;DHT22;46694;54.382;9.708;2022-11-15T15:56:18;10.30;99.90
60860;DHT22;46694;54.382;9.708;2022-11-15T15:58:58;10.20;99.90
60860;DHT22;46694;54.382;9.708;2022-11-15T16:01:37;10.30;99.90
60860;DHT22;46694;54.382;9.708;2022-11-15T16:04:17;10.20;99.90
60860;DHT22;46694;54.382;9.708;2022-11-15T16:07:01;10.30;99.90
60860;DHT22;46694;54.382;9.708;2022-11-15T16:09:40;10.20;99.90
60860;DHT22;46694;54.382;9.708;2022-11-15T16:12:38;10.20;99.90
60860;DHT22;46694;54.382;9.708;2022-11-15T16:15:19;10.30;99.90
60860;DHT22;46694;54.382;9.708;2022-11-15T16:18:00;10.30;99.90
60860;DHT22;46694;54.382;9.708;2022-11-15T16:20:41;10.20;99.90
60860;DHT22;46694;54.382;9.708;2022-11-15T16:23:24;10.20;99.90
60860;DHT22;46694;54.382;9.708;2022-11-15T16:26:17;10.30;99.90
60860;DHT22;46694;54.382;9.708;2022-11-15T16:29:08;10.30;99.90
60860;DHT22;46694;54.382;9.708;2022-11-15T16:31:48;10.20;99.90
60860;DHT22;46694;54.382;9.708;2022-11-15T16:34:28;10.30;99.90
60860;DHT22;46694;54.382;9.708;2022-11-15T16:37:23;10.30;99.90
60860;DHT22;46694;54.382;9.708;2022-11-15T16:40:03;10.30;99.90
60860;DHT22;46694;54.382;9.708;2022-11-15T16:42:43;10.20;99.90
60860;DHT22;46694;54.382;9.708;2022-11-15T16:45:23;10.20;99.90
60860;DHT22;46694;54.382;9.708;2022-11-15T16:48:03;10.20;99.90
60860;DHT22;46694;54.382;9.708;2022-11-15T16:50:42;10.20;99.90
60860;DHT22;46694;54.382;9.708;2022-11-15T16:53:22;10.20;99.90
60860;DHT22;46694;54.382;9.708;2022-11-15T16:56:01;10.20;99.90
60860;DHT22;46694;54.382;9.708;2022-11-15T16:58:41;10.10;99.90
60860;DHT22;46694;54.382;9.708;2022-11-15T17:01:23;10.10;99.90
60860;DHT22;46694;54.382;9.708;2022-11-15T17:04:04;10.10;99.90
60860;DHT22;46694;54.382;9.708;2022-11-15T17:06:50;10.10;99.90
60860;DHT22;46694;54.382;9.708;2022-11-15T17:09:30;10.10;99.90
60860;DHT22;46694;54.382;9.708;2022-11-15T17:12:11;10.10;99.90
60860;DHT22;46694;54.382;9.708;2022-11-15T17:14:50;10.10;99.90
60860;DHT22;46694;54.382;9.708;2022-11-15T17:17:31;10.00;99.90
60860;DHT22;46694;54.382;9.708;2022-11-15T17:20:16;10.10;99.90
60860;DHT22;46694;54.382;9.708;2022-11-15T17:22:56;10.00;99.90
60860;DHT22;46694;54.382;9.708;2022-11-15T17:25:36;10.00;99.90
60860;DHT22;46694;54.382;9.708;2022-11-15T17:28:15;10.00;99.90
60860;DHT22;46694;54.382;9.708;2022-11-15T17:30:55;9.90;99.90
60860;DHT22;46694;54.382;9.708;2022-11-15T17:33:35;10.00;99.90
60860;DHT22;46694;54.382;9.708;2022-11-15T17:36:15;9.90;99.90
60860;DHT22;46694;54.382;9.708;2022-11-15T17:38:55;9.90;99.90
60860;DHT22;46694;54.382;9.708;2022-11-15T17:41:35;9.90;99.90
60860;DHT22;46694;54.382;9.708;2022-11-15T17:44:14;9.90;99.90
60860;DHT22;46694;54.382;9.708;2022-11-15T17:46:54;10.00;99.90
60860;DHT22;46694;54.382;9.708;2022-11-15T17:49:34;9.90;99.90
60860;DHT22;46694;54.382;9.708;2022-11-15T17:52:17;10.00;99.90
60860;DHT22;46694;54.382;9.708;2022-11-15T17:54:56;10.00;99.90
60860;DHT22;46694;54.382;9.708;2022-11-15T17:57:36;10.00;99.90
60860;DHT22;46694;54.382;9.708;2022-11-15T18:00:16;10.00;99.90
60860;DHT22;46694;54.382;9.708;2022-11-15T18:02:59;10.00;99.90
60860;DHT22;46694;54.382;9.708;2022-11-15T18:05:39;10.00;99.90
60860;DHT22;46694;54.382;9.708;2022-11-15T18:08:21;10.00;99.90
60860;DHT22;46694;54.382;9.708;2022-11-15T18:11:17;10.00;99.90
60860;DHT22;46694;54.382;9.708;2022-11-15T18:14:06;10.00;99.90
60860;DHT22;46694;54.382;9.708;2022-11-15T18:16:46;9.90;99.90
60860;DHT22;46694;54.382;9.708;2022-11-15T18:19:28;10.00;99.90
60860;DHT22;46694;54.382;9.708;2022-11-15T18:22:08;9.90;99.90
60860;DHT22;46694;54.382;9.708;2022-11-15T18:24:48;9.90;99.90
60860;DHT22;46694;54.382;9.708;2022-11-15T18:27:27;9.90;99.90
60860;DHT22;46694;54.382;9.708;2022-11-15T18:30:07;9.90;99.90
60860;DHT22;46694;54.382;9.708;2022-11-15T18:32:47;9.80;99.90
60860;DHT22;46694;54.382;9.708;2022-11-15T18:35:27;9.80;99.90
60860;DHT22;46694;54.382;9.708;2022-11-15T18:38:38;9.80;99.90
60860;DHT22;46694;54.382;9.708;2022-11-15T18:41:19;9.80;99.90
60860;DHT22;46694;54.382;9.708;2022-11-15T18:44:02;9.90;99.90
60860;DHT22;46694;54.382;9.708;2022-11-15T18:46:42;9.90;99.90
60860;DHT22;46694;54.382;9.708;2022-11-15T18:49:24;9.80;99.90
60860;DHT22;46694;54.382;9.708;2022-11-15T18:52:08;9.80;99.90
60860;DHT22;46694;54.382;9.708;2022-11-15T18:54:50;9.80;99.90
60860;DHT22;46694;54.382;9.708;2022-11-15T18:57:30;9.90;99.90
60860;DHT22;46694;54.382;9.708;2022-11-15T19:00:10;9.90;99.90
60860;DHT22;46694;54.382;9.708;2022-11-15T19:02:53;9.80;99.90
60860;DHT22;46694;54.382;9.708;2022-11-15T19:05:32;9.80;99.90
60860;DHT22;46694;54.382;9.708;2022-11-15T19:08:13;9.80;99.90